^^
Your Local Weather - Clay, NY Station Historical Data
 
Daily Summary for January 15, 2019 Units:  Both    English   Metric
« Previous Day
Next Day »
Daily Weekly Monthly Yearly Custom
  Current: High: Low: Average:
Temperature: 29.3 °F /  -1.5 °C 31.2 °F /  -0.4 °C 11.9 °F /  -11.2 °C 25 °F /  -3.9 °C
Dew Point: 25.1 °F /  -3.8 °C 25.1 °F /  -3.8 °C 9.0 °F /  -12.8 °C 19.7 °F /  -6.8 °C
Humidity: 84% 88% 74% 80%
Wind Speed: 1.0mph /  1.6km/h 4.0mph /  6.4km/h - 1.2mph /  1.9km/h
Wind Gust: 3.0mph /  4.8km/h 7.0mph /  11.3km/h - -
WindSSW - - WSW
Pressure: 30.06 in /  1017.8 hPa 30.19 in /  1022.2 hPa 30.05 in /  1017.5 hPa -
Precipitation: 0.00 in /  0 mm      
Historical Graphs
 
 
Tabular Data for January 15, 2019
Time Temperature Dew Point Pressure Wind Wind Speed Wind Gust Humidity Rainfall Rate (Hourly) solar
00:04 11.9 °F /  -11.2 °C 9.0 °F /  -12.8 °C 30.19in /  1022.2hPa Calm     88% 0.00in /  0mm 0.00 W/m2
00:08 12.1 °F /  -11.1 °C 9.2 °F /  -12.7 °C 30.19in /  1022.2hPa Calm     88% 0.00in /  0mm 0.00 W/m2
00:14 12.5 °F /  -10.8 °C 9.6 °F /  -12.4 °C 30.19in /  1022.2hPa Calm     88% 0.00in /  0mm 0.00 W/m2
00:18 12.7 °F /  -10.7 °C 9.8 °F /  -12.3 °C 30.19in /  1022.2hPa Calm   1.0mph /  1.6km/h 88% 0.00in /  0mm 0.00 W/m2
00:24 13.1 °F /  -10.5 °C 10.2 °F /  -12.1 °C 30.19in /  1022.2hPa Calm     88% 0.00in /  0mm 0.00 W/m2
00:28 13.4 °F /  -10.3 °C 10.5 °F /  -11.9 °C 30.19in /  1022.2hPa Calm   1.0mph /  1.6km/h 88% 0.00in /  0mm 0.00 W/m2
00:34 13.7 °F /  -10.2 °C 10.8 °F /  -11.8 °C 30.19in /  1022.2hPa West 1.0mph /  1.6km/h 1.0mph /  1.6km/h 88% 0.00in /  0mm 0.00 W/m2
00:38 13.9 °F /  -10.1 °C 11.0 °F /  -11.7 °C 30.19in /  1022.2hPa Calm   1.0mph /  1.6km/h 88% 0.00in /  0mm 0.00 W/m2
00:44 14.2 °F /  -9.9 °C 11.3 °F /  -11.5 °C 30.19in /  1022.2hPa Calm     88% 0.00in /  0mm 0.00 W/m2
00:48 14.4 °F /  -9.8 °C 11.5 °F /  -11.4 °C 30.19in /  1022.2hPa West 1.0mph /  1.6km/h 1.0mph /  1.6km/h 88% 0.00in /  0mm 0.00 W/m2
00:54 14.6 °F /  -9.7 °C 11.7 °F /  -11.3 °C 30.19in /  1022.2hPa South 2.0mph /  3.2km/h 4.0mph /  6.4km/h 88% 0.00in /  0mm 0.00 W/m2
00:58 14.7 °F /  -9.6 °C 11.8 °F /  -11.2 °C 30.19in /  1022.2hPa South 2.0mph /  3.2km/h 4.0mph /  6.4km/h 88% 0.00in /  0mm 0.00 W/m2
01:04 14.9 °F /  -9.5 °C 12.0 °F /  -11.1 °C 30.18in /  1021.9hPa SSW 2.0mph /  3.2km/h 3.0mph /  4.8km/h 88% 0.00in /  0mm 0.00 W/m2
01:08 15.0 °F /  -9.4 °C 12.1 °F /  -11.1 °C 30.18in /  1021.9hPa SSW 1.0mph /  1.6km/h 3.0mph /  4.8km/h 88% 0.00in /  0mm 0.00 W/m2
01:14 15.2 °F /  -9.3 °C 12.0 °F /  -11.1 °C 30.18in /  1021.9hPa SSW 1.0mph /  1.6km/h 2.0mph /  3.2km/h 87% 0.00in /  0mm 0.00 W/m2
01:18 15.5 °F /  -9.2 °C 12.6 °F /  -10.8 °C 30.18in /  1021.9hPa SSW 1.0mph /  1.6km/h 3.0mph /  4.8km/h 88% 0.00in /  0mm 0.00 W/m2
01:24 15.6 °F /  -9.1 °C 12.4 °F /  -10.9 °C 30.18in /  1021.9hPa SSW 1.0mph /  1.6km/h 1.0mph /  1.6km/h 87% 0.00in /  0mm 0.00 W/m2
01:28 15.8 °F /  -9 °C 12.6 °F /  -10.8 °C 30.18in /  1021.9hPa SSW 1.0mph /  1.6km/h 2.0mph /  3.2km/h 87% 0.00in /  0mm 0.00 W/m2
01:34 16.0 °F /  -8.9 °C 12.8 °F /  -10.7 °C 30.18in /  1021.9hPa SSW 1.0mph /  1.6km/h 3.0mph /  4.8km/h 87% 0.00in /  0mm 0.00 W/m2
01:38 16.1 °F /  -8.8 °C 12.9 °F /  -10.6 °C 30.18in /  1021.9hPa SSW 1.0mph /  1.6km/h 3.0mph /  4.8km/h 87% 0.00in /  0mm 0.00 W/m2
01:44 16.3 °F /  -8.7 °C 13.1 °F /  -10.5 °C 30.18in /  1021.9hPa Calm     87% 0.00in /  0mm 0.00 W/m2
01:48 16.5 °F /  -8.6 °C 13.3 °F /  -10.4 °C 30.18in /  1021.9hPa Calm     87% 0.00in /  0mm 0.00 W/m2
01:54 16.6 °F /  -8.6 °C 13.4 °F /  -10.3 °C 30.18in /  1021.9hPa Calm     87% 0.00in /  0mm 0.00 W/m2
01:58 16.7 °F /  -8.5 °C 13.5 °F /  -10.3 °C 30.18in /  1021.9hPa Calm     87% 0.00in /  0mm 0.00 W/m2
02:04 16.8 °F /  -8.4 °C 13.6 °F /  -10.2 °C 30.18in /  1021.9hPa Calm     87% 0.00in /  0mm 0.00 W/m2
02:08 16.9 °F /  -8.4 °C 13.7 °F /  -10.2 °C 30.18in /  1021.9hPa Calm     87% 0.00in /  0mm 0.00 W/m2
02:14 17.1 °F /  -8.3 °C 13.9 °F /  -10.1 °C 30.18in /  1021.9hPa Calm     87% 0.00in /  0mm 0.00 W/m2
02:18 17.3 °F /  -8.2 °C 14.1 °F /  -9.9 °C 30.18in /  1021.9hPa Calm   1.0mph /  1.6km/h 87% 0.00in /  0mm 0.00 W/m2
02:24 17.4 °F /  -8.1 °C 13.9 °F /  -10.1 °C 30.18in /  1021.9hPa Calm   1.0mph /  1.6km/h 86% 0.00in /  0mm 0.00 W/m2
02:28 17.5 °F /  -8.1 °C 14.0 °F /  -10 °C 30.18in /  1021.9hPa Calm   1.0mph /  1.6km/h 86% 0.00in /  0mm 0.00 W/m2
02:34 17.6 °F /  -8 °C 14.1 °F /  -9.9 °C 30.18in /  1021.9hPa Calm     86% 0.00in /  0mm 0.00 W/m2
02:38 17.6 °F /  -8 °C 14.1 °F /  -9.9 °C 30.17in /  1021.6hPa Calm     86% 0.00in /  0mm 0.00 W/m2
02:44 17.5 °F /  -8.1 °C 14.0 °F /  -10 °C 30.17in /  1021.6hPa Calm     86% 0.00in /  0mm 0.00 W/m2
02:48 17.5 °F /  -8.1 °C 14.0 °F /  -10 °C 30.17in /  1021.6hPa Calm     86% 0.00in /  0mm 0.00 W/m2
02:54 17.8 °F /  -7.9 °C 14.3 °F /  -9.8 °C 30.17in /  1021.6hPa Calm     86% 0.00in /  0mm 0.00 W/m2
02:58 18.0 °F /  -7.8 °C 14.5 °F /  -9.7 °C 30.17in /  1021.6hPa Calm     86% 0.00in /  0mm 0.00 W/m2
03:04 18.0 °F /  -7.8 °C 14.5 °F /  -9.7 °C 30.17in /  1021.6hPa Calm     86% 0.00in /  0mm 0.00 W/m2
03:08 18.0 °F /  -7.8 °C 14.5 °F /  -9.7 °C 30.17in /  1021.6hPa Calm     86% 0.00in /  0mm 0.00 W/m2
03:14 18.1 °F /  -7.7 °C 14.9 °F /  -9.5 °C 30.17in /  1021.6hPa Calm     87% 0.00in /  0mm 0.00 W/m2
03:18 18.2 °F /  -7.7 °C 15.0 °F /  -9.4 °C 30.17in /  1021.6hPa Calm     87% 0.00in /  0mm 0.00 W/m2
03:24 18.5 °F /  -7.5 °C 15.0 °F /  -9.4 °C 30.16in /  1021.2hPa Calm     86% 0.00in /  0mm 0.00 W/m2
03:28 18.8 °F /  -7.3 °C 15.3 °F /  -9.3 °C 30.16in /  1021.2hPa Calm   1.0mph /  1.6km/h 86% 0.00in /  0mm 0.00 W/m2
03:34 19.0 °F /  -7.2 °C 15.2 °F /  -9.3 °C 30.15in /  1020.9hPa Calm     85% 0.00in /  0mm 0.00 W/m2
03:38 19.0 °F /  -7.2 °C 15.2 °F /  -9.3 °C 30.15in /  1020.9hPa Calm     85% 0.00in /  0mm 0.00 W/m2
03:44 19.0 °F /  -7.2 °C 15.2 °F /  -9.3 °C 30.15in /  1020.9hPa Calm     85% 0.00in /  0mm 0.00 W/m2
03:48 19.0 °F /  -7.2 °C 15.2 °F /  -9.3 °C 30.15in /  1020.9hPa Calm     85% 0.00in /  0mm 0.00 W/m2
03:54 19.0 °F /  -7.2 °C 15.2 °F /  -9.3 °C 30.15in /  1020.9hPa Calm     85% 0.00in /  0mm 0.00 W/m2
03:58 19.0 °F /  -7.2 °C 15.5 °F /  -9.2 °C 30.15in /  1020.9hPa Calm     86% 0.00in /  0mm 0.00 W/m2
04:04 19.1 °F /  -7.2 °C 15.6 °F /  -9.1 °C 30.14in /  1020.5hPa Calm   2.0mph /  3.2km/h 86% 0.00in /  0mm 0.00 W/m2
04:08 19.4 °F /  -7 °C 15.9 °F /  -8.9 °C 30.14in /  1020.5hPa Calm   2.0mph /  3.2km/h 86% 0.00in /  0mm 0.00 W/m2
04:14 19.8 °F /  -6.8 °C 16.3 °F /  -8.7 °C 30.14in /  1020.5hPa Calm     86% 0.00in /  0mm 0.00 W/m2
04:18 20.0 °F /  -6.7 °C 16.2 °F /  -8.8 °C 30.14in /  1020.5hPa SSW 1.0mph /  1.6km/h 1.0mph /  1.6km/h 85% 0.00in /  0mm 0.00 W/m2
04:24 20.4 °F /  -6.4 °C 16.6 °F /  -8.6 °C 30.14in /  1020.5hPa SW 1.0mph /  1.6km/h 2.0mph /  3.2km/h 85% 0.00in /  0mm 0.00 W/m2
04:28 20.6 °F /  -6.3 °C 16.8 °F /  -8.4 °C 30.14in /  1020.5hPa SW 1.0mph /  1.6km/h 2.0mph /  3.2km/h 85% 0.00in /  0mm 0.00 W/m2
04:34 20.9 °F /  -6.2 °C 16.8 °F /  -8.4 °C 30.14in /  1020.5hPa SW 1.0mph /  1.6km/h 3.0mph /  4.8km/h 84% 0.00in /  0mm 0.00 W/m2
04:38 21.1 °F /  -6.1 °C 17.0 °F /  -8.3 °C 30.14in /  1020.5hPa WSW 1.0mph /  1.6km/h 3.0mph /  4.8km/h 84% 0.00in /  0mm 0.00 W/m2
04:44 21.2 °F /  -6 °C 17.1 °F /  -8.3 °C 30.14in /  1020.5hPa WSW 1.0mph /  1.6km/h 2.0mph /  3.2km/h 84% 0.00in /  0mm 0.00 W/m2
04:48 21.3 °F /  -5.9 °C 16.9 °F /  -8.4 °C 30.14in /  1020.5hPa WSW 1.0mph /  1.6km/h 2.0mph /  3.2km/h 83% 0.00in /  0mm 0.00 W/m2
04:54 21.4 °F /  -5.9 °C 17.3 °F /  -8.2 °C 30.14in /  1020.5hPa WSW 1.0mph /  1.6km/h 1.0mph /  1.6km/h 84% 0.00in /  0mm 0.00 W/m2
04:58 21.4 °F /  -5.9 °C 17.3 °F /  -8.2 °C 30.14in /  1020.5hPa Calm   1.0mph /  1.6km/h 84% 0.00in /  0mm 0.00 W/m2
05:04 21.5 °F /  -5.8 °C 17.4 °F /  -8.1 °C 30.14in /  1020.5hPa Calm     84% 0.00in /  0mm 0.00 W/m2
05:08 21.6 °F /  -5.8 °C 17.5 °F /  -8.1 °C 30.14in /  1020.5hPa Calm     84% 0.00in /  0mm 0.00 W/m2
05:14 21.7 °F /  -5.7 °C 17.6 °F /  -8 °C 30.14in /  1020.5hPa Calm   1.0mph /  1.6km/h 84% 0.00in /  0mm 0.00 W/m2
05:18 21.8 °F /  -5.7 °C 17.7 °F /  -7.9 °C 30.14in /  1020.5hPa Calm   1.0mph /  1.6km/h 84% 0.00in /  0mm 0.00 W/m2
05:24 22.0 °F /  -5.6 °C 17.6 °F /  -8 °C 30.14in /  1020.5hPa Calm   2.0mph /  3.2km/h 83% 0.00in /  0mm 0.00 W/m2
05:28 22.1 °F /  -5.5 °C 17.7 °F /  -7.9 °C 30.14in /  1020.5hPa WSW 1.0mph /  1.6km/h 2.0mph /  3.2km/h 83% 0.00in /  0mm 0.00 W/m2
05:34 22.3 °F /  -5.4 °C 17.9 °F /  -7.8 °C 30.14in /  1020.5hPa WSW 1.0mph /  1.6km/h 4.0mph /  6.4km/h 83% 0.00in /  0mm 0.00 W/m2
05:38 22.4 °F /  -5.3 °C 18.0 °F /  -7.8 °C 30.14in /  1020.5hPa WSW 1.0mph /  1.6km/h 4.0mph /  6.4km/h 83% 0.00in /  0mm 0.00 W/m2
05:44 22.5 °F /  -5.3 °C 18.1 °F /  -7.7 °C 30.14in /  1020.5hPa WSW 1.0mph /  1.6km/h 3.0mph /  4.8km/h 83% 0.00in /  0mm 0.00 W/m2
05:48 22.6 °F /  -5.2 °C 18.2 °F /  -7.7 °C 30.14in /  1020.5hPa WSW 1.0mph /  1.6km/h 3.0mph /  4.8km/h 83% 0.00in /  0mm 0.00 W/m2
05:54 22.7 °F /  -5.2 °C 18.3 °F /  -7.6 °C 30.14in /  1020.5hPa WSW 1.0mph /  1.6km/h 1.0mph /  1.6km/h 83% 0.00in /  0mm 0.00 W/m2
05:58 22.8 °F /  -5.1 °C 18.4 °F /  -7.6 °C 30.14in /  1020.5hPa WSW 1.0mph /  1.6km/h 1.0mph /  1.6km/h 83% 0.00in /  0mm 0.00 W/m2
06:04 23.0 °F /  -5 °C 18.6 °F /  -7.4 °C 30.14in /  1020.5hPa WSW 1.0mph /  1.6km/h 2.0mph /  3.2km/h 83% 0.00in /  0mm 0.00 W/m2
06:08 23.0 °F /  -5 °C 18.3 °F /  -7.6 °C 30.14in /  1020.5hPa WSW 1.0mph /  1.6km/h 2.0mph /  3.2km/h 82% 0.00in /  0mm 0.00 W/m2
06:14 23.0 °F /  -5 °C 18.3 °F /  -7.6 °C 30.14in /  1020.5hPa WSW 1.0mph /  1.6km/h 3.0mph /  4.8km/h 82% 0.00in /  0mm 0.00 W/m2
06:18 23.2 °F /  -4.9 °C 18.5 °F /  -7.5 °C 30.14in /  1020.5hPa WSW 1.0mph /  1.6km/h 3.0mph /  4.8km/h 82% 0.00in /  0mm 0.00 W/m2
06:24 23.2 °F /  -4.9 °C 18.5 °F /  -7.5 °C 30.14in /  1020.5hPa WSW 1.0mph /  1.6km/h 1.0mph /  1.6km/h 82% 0.00in /  0mm 0.00 W/m2
06:28 23.2 °F /  -4.9 °C 18.5 °F /  -7.5 °C 30.13in /  1020.2hPa WSW 1.0mph /  1.6km/h 2.0mph /  3.2km/h 82% 0.00in /  0mm 0.00 W/m2
06:34 23.3 °F /  -4.8 °C 18.6 °F /  -7.4 °C 30.14in /  1020.5hPa WSW 1.0mph /  1.6km/h 4.0mph /  6.4km/h 82% 0.00in /  0mm 0.00 W/m2
06:38 23.4 °F /  -4.8 °C 18.7 °F /  -7.4 °C 30.14in /  1020.5hPa WSW 1.0mph /  1.6km/h 4.0mph /  6.4km/h 82% 0.00in /  0mm 0.00 W/m2
06:44 23.6 °F /  -4.7 °C 18.9 °F /  -7.3 °C 30.14in /  1020.5hPa WSW 1.0mph /  1.6km/h 5.0mph /  8km/h 82% 0.00in /  0mm 0.00 W/m2
06:48 23.6 °F /  -4.7 °C 18.9 °F /  -7.3 °C 30.14in /  1020.5hPa WSW 1.0mph /  1.6km/h 5.0mph /  8km/h 82% 0.00in /  0mm 0.00 W/m2
06:54 23.6 °F /  -4.7 °C 18.9 °F /  -7.3 °C 30.14in /  1020.5hPa Calm   1.0mph /  1.6km/h 82% 0.00in /  0mm 0.00 W/m2
06:58 23.7 °F /  -4.6 °C 19.0 °F /  -7.2 °C 30.14in /  1020.5hPa Calm   1.0mph /  1.6km/h 82% 0.00in /  0mm 0.00 W/m2
07:04 23.7 °F /  -4.6 °C 19.0 °F /  -7.2 °C 30.14in /  1020.5hPa WSW 1.0mph /  1.6km/h 2.0mph /  3.2km/h 82% 0.00in /  0mm 0.00 W/m2
07:08 23.8 °F /  -4.6 °C 18.8 °F /  -7.3 °C 30.14in /  1020.5hPa WSW 1.0mph /  1.6km/h 2.0mph /  3.2km/h 81% 0.00in /  0mm 0.00 W/m2
07:14 23.9 °F /  -4.5 °C 19.2 °F /  -7.1 °C 30.13in /  1020.2hPa WSW 1.0mph /  1.6km/h 3.0mph /  4.8km/h 82% 0.00in /  0mm 0.00 W/m2
07:18 24.0 °F /  -4.4 °C 19.0 °F /  -7.2 °C 30.13in /  1020.2hPa WSW 1.0mph /  1.6km/h 3.0mph /  4.8km/h 81% 0.00in /  0mm 0.00 W/m2
07:24 24.1 °F /  -4.4 °C 19.1 °F /  -7.2 °C 30.13in /  1020.2hPa WSW 1.0mph /  1.6km/h 3.0mph /  4.8km/h 81% 0.00in /  0mm 0.00 W/m2
07:28 24.1 °F /  -4.4 °C 19.1 °F /  -7.2 °C 30.13in /  1020.2hPa WSW 1.0mph /  1.6km/h 3.0mph /  4.8km/h 81% 0.00in /  0mm 0.00 W/m2
07:34 24.3 °F /  -4.3 °C 19.3 °F /  -7.1 °C 30.13in /  1020.2hPa SW 1.0mph /  1.6km/h 5.0mph /  8km/h 81% 0.00in /  0mm 0.00 W/m2
07:38 24.5 °F /  -4.2 °C 19.5 °F /  -6.9 °C 30.13in /  1020.2hPa SW 2.0mph /  3.2km/h 5.0mph /  8km/h 81% 0.00in /  0mm 0.00 W/m2
07:44 24.6 °F /  -4.1 °C 19.6 °F /  -6.9 °C 30.13in /  1020.2hPa SW 1.0mph /  1.6km/h 2.0mph /  3.2km/h 81% 0.00in /  0mm 7.00 W/m2
07:48 24.6 °F /  -4.1 °C 19.3 °F /  -7.1 °C 30.13in /  1020.2hPa SW 1.0mph /  1.6km/h 2.0mph /  3.2km/h 80% 0.00in /  0mm 7.00 W/m2
07:54 24.8 °F /  -4 °C 19.5 °F /  -6.9 °C 30.13in /  1020.2hPa Calm     80% 0.00in /  0mm 11.00 W/m2
07:58 24.8 °F /  -4 °C 19.5 °F /  -6.9 °C 30.13in /  1020.2hPa Calm   2.0mph /  3.2km/h 80% 0.00in /  0mm 11.00 W/m2
08:04 24.9 °F /  -3.9 °C 19.6 °F /  -6.9 °C 30.13in /  1020.2hPa Calm     80% 0.00in /  0mm 12.00 W/m2
08:08 25.0 °F /  -3.9 °C 19.7 °F /  -6.8 °C 30.13in /  1020.2hPa SW 1.0mph /  1.6km/h 1.0mph /  1.6km/h 80% 0.00in /  0mm 14.00 W/m2
08:14 25.1 °F /  -3.8 °C 19.8 °F /  -6.8 °C 30.13in /  1020.2hPa SW 1.0mph /  1.6km/h 1.0mph /  1.6km/h 80% 0.00in /  0mm 18.00 W/m2
08:18 25.2 °F /  -3.8 °C 19.9 °F /  -6.7 °C 30.13in /  1020.2hPa SW 1.0mph /  1.6km/h 1.0mph /  1.6km/h 80% 0.00in /  0mm 23.00 W/m2
08:24 25.4 °F /  -3.7 °C 20.1 °F /  -6.6 °C 30.13in /  1020.2hPa Calm   1.0mph /  1.6km/h 80% 0.00in /  0mm 28.00 W/m2
08:28 25.5 °F /  -3.6 °C 20.2 °F /  -6.6 °C 30.13in /  1020.2hPa Calm   1.0mph /  1.6km/h 80% 0.00in /  0mm 30.00 W/m2
08:34 25.7 °F /  -3.5 °C 20.1 °F /  -6.6 °C 30.13in /  1020.2hPa SW 1.0mph /  1.6km/h 1.0mph /  1.6km/h 79% 0.00in /  0mm 30.00 W/m2
08:38 25.7 °F /  -3.5 °C 20.1 °F /  -6.6 °C 30.13in /  1020.2hPa SW 1.0mph /  1.6km/h 1.0mph /  1.6km/h 79% 0.00in /  0mm 28.00 W/m2
08:44 25.9 °F /  -3.4 °C 20.3 °F /  -6.5 °C 30.13in /  1020.2hPa SW 1.0mph /  1.6km/h 2.0mph /  3.2km/h 79% 0.00in /  0mm 28.00 W/m2
08:48 26.0 °F /  -3.3 °C 20.4 °F /  -6.4 °C 30.13in /  1020.2hPa SW 1.0mph /  1.6km/h 2.0mph /  3.2km/h 79% 0.00in /  0mm 28.00 W/m2
08:54 26.1 °F /  -3.3 °C 20.5 °F /  -6.4 °C 30.13in /  1020.2hPa Calm   1.0mph /  1.6km/h 79% 0.00in /  0mm 26.00 W/m2
08:58 26.2 °F /  -3.2 °C 20.6 °F /  -6.3 °C 30.13in /  1020.2hPa SW 1.0mph /  1.6km/h 2.0mph /  3.2km/h 79% 0.00in /  0mm 21.00 W/m2
09:04 26.3 °F /  -3.2 °C 20.4 °F /  -6.4 °C 30.13in /  1020.2hPa SW 1.0mph /  1.6km/h 4.0mph /  6.4km/h 78% 0.00in /  0mm 21.00 W/m2
09:08 26.3 °F /  -3.2 °C 20.4 °F /  -6.4 °C 30.14in /  1020.5hPa SW 1.0mph /  1.6km/h 4.0mph /  6.4km/h 78% 0.00in /  0mm 26.00 W/m2
09:14 26.4 °F /  -3.1 °C 20.5 °F /  -6.4 °C 30.14in /  1020.5hPa Calm   1.0mph /  1.6km/h 78% 0.00in /  0mm 33.00 W/m2
09:18 26.5 °F /  -3.1 °C 20.6 °F /  -6.3 °C 30.14in /  1020.5hPa SW 1.0mph /  1.6km/h 3.0mph /  4.8km/h 78% 0.00in /  0mm 35.00 W/m2
09:24 26.6 °F /  -3 °C 20.7 °F /  -6.3 °C 30.15in /  1020.9hPa SW 1.0mph /  1.6km/h 3.0mph /  4.8km/h 78% 0.00in /  0mm 44.00 W/m2
09:28 26.8 °F /  -2.9 °C 20.9 °F /  -6.2 °C 30.15in /  1020.9hPa SW 1.0mph /  1.6km/h 3.0mph /  4.8km/h 78% 0.00in /  0mm 42.00 W/m2
09:34 26.8 °F /  -2.9 °C 20.6 °F /  -6.3 °C 30.15in /  1020.9hPa SW 1.0mph /  1.6km/h 2.0mph /  3.2km/h 77% 0.00in /  0mm 32.00 W/m2
09:38 26.9 °F /  -2.8 °C 20.7 °F /  -6.3 °C 30.15in /  1020.9hPa SW 1.0mph /  1.6km/h 2.0mph /  3.2km/h 77% 0.00in /  0mm 32.00 W/m2
09:44 27.0 °F /  -2.8 °C 20.7 °F /  -6.3 °C 30.15in /  1020.9hPa SW 1.0mph /  1.6km/h 2.0mph /  3.2km/h 77% 0.00in /  0mm 42.00 W/m2
09:48 27.0 °F /  -2.8 °C 20.7 °F /  -6.3 °C 30.15in /  1020.9hPa SW 1.0mph /  1.6km/h 2.0mph /  3.2km/h 77% 0.00in /  0mm 44.00 W/m2
09:54 27.2 °F /  -2.7 °C 20.9 °F /  -6.2 °C 30.15in /  1020.9hPa WSW 1.0mph /  1.6km/h 3.0mph /  4.8km/h 77% 0.00in /  0mm 49.00 W/m2
09:58 27.2 °F /  -2.7 °C 20.9 °F /  -6.2 °C 30.15in /  1020.9hPa WSW 2.0mph /  3.2km/h 3.0mph /  4.8km/h 77% 0.00in /  0mm 47.00 W/m2
10:04 27.3 °F /  -2.6 °C 21.0 °F /  -6.1 °C 30.15in /  1020.9hPa WNW 1.0mph /  1.6km/h 1.0mph /  1.6km/h 77% 0.00in /  0mm 40.00 W/m2
10:08 27.4 °F /  -2.6 °C 20.8 °F /  -6.2 °C 30.15in /  1020.9hPa SW 1.0mph /  1.6km/h 1.0mph /  1.6km/h 76% 0.00in /  0mm 44.00 W/m2
10:14 27.5 °F /  -2.5 °C 20.9 °F /  -6.2 °C 30.15in /  1020.9hPa WSW 2.0mph /  3.2km/h 3.0mph /  4.8km/h 76% 0.00in /  0mm 51.00 W/m2
10:18 27.6 °F /  -2.4 °C 21.0 °F /  -6.1 °C 30.15in /  1020.9hPa WSW 1.0mph /  1.6km/h 3.0mph /  4.8km/h 76% 0.00in /  0mm 54.00 W/m2
10:24 27.7 °F /  -2.4 °C 21.1 °F /  -6.1 °C 30.15in /  1020.9hPa WSW 1.0mph /  1.6km/h 2.0mph /  3.2km/h 76% 0.00in /  0mm 58.00 W/m2
10:28 27.8 °F /  -2.3 °C 21.2 °F /  -6 °C 30.15in /  1020.9hPa WSW 1.0mph /  1.6km/h 3.0mph /  4.8km/h 76% 0.00in /  0mm 63.00 W/m2
10:34 27.9 °F /  -2.3 °C 21.3 °F /  -5.9 °C 30.15in /  1020.9hPa WSW 2.0mph /  3.2km/h 3.0mph /  4.8km/h 76% 0.00in /  0mm 53.00 W/m2
10:38 27.9 °F /  -2.3 °C 21.0 °F /  -6.1 °C 30.15in /  1020.9hPa WSW 2.0mph /  3.2km/h 3.0mph /  4.8km/h 75% 0.00in /  0mm 54.00 W/m2
10:44 28.0 °F /  -2.2 °C 21.1 °F /  -6.1 °C 30.15in /  1020.9hPa WSW 1.0mph /  1.6km/h 5.0mph /  8km/h 75% 0.00in /  0mm 56.00 W/m2
10:48 28.1 °F /  -2.2 °C 21.2 °F /  -6 °C 30.15in /  1020.9hPa WSW 1.0mph /  1.6km/h 5.0mph /  8km/h 75% 0.00in /  0mm 63.00 W/m2
10:54 28.2 °F /  -2.1 °C 21.3 °F /  -5.9 °C 30.14in /  1020.5hPa WSW 2.0mph /  3.2km/h 2.0mph /  3.2km/h 75% 0.00in /  0mm 60.00 W/m2
10:58 28.3 °F /  -2.1 °C 21.1 °F /  -6.1 °C 30.14in /  1020.5hPa West 2.0mph /  3.2km/h 2.0mph /  3.2km/h 74% 0.00in /  0mm 58.00 W/m2
11:04 28.3 °F /  -2.1 °C 21.4 °F /  -5.9 °C 30.13in /  1020.2hPa WSW 1.0mph /  1.6km/h 1.0mph /  1.6km/h 75% 0.00in /  0mm 56.00 W/m2
11:08 28.4 °F /  -2 °C 21.5 °F /  -5.8 °C 30.13in /  1020.2hPa West 1.0mph /  1.6km/h 1.0mph /  1.6km/h 75% 0.00in /  0mm 62.00 W/m2
11:14 28.5 °F /  -1.9 °C 21.6 °F /  -5.8 °C 30.13in /  1020.2hPa West 1.0mph /  1.6km/h 1.0mph /  1.6km/h 75% 0.00in /  0mm 67.00 W/m2
11:18 28.4 °F /  -2 °C 21.5 °F /  -5.8 °C 30.13in /  1020.2hPa West 1.0mph /  1.6km/h 2.0mph /  3.2km/h 75% 0.00in /  0mm 49.00 W/m2
11:24 28.5 °F /  -1.9 °C 21.6 °F /  -5.8 °C 30.13in /  1020.2hPa WSW 1.0mph /  1.6km/h 3.0mph /  4.8km/h 75% 0.00in /  0mm 60.00 W/m2
11:28 28.6 °F /  -1.9 °C 21.7 °F /  -5.7 °C 30.13in /  1020.2hPa WSW 2.0mph /  3.2km/h 3.0mph /  4.8km/h 75% 0.00in /  0mm 69.00 W/m2
11:34 28.6 °F /  -1.9 °C 21.7 °F /  -5.7 °C 30.12in /  1019.9hPa SSW 2.0mph /  3.2km/h 3.0mph /  4.8km/h 75% 0.00in /  0mm 69.00 W/m2
11:38 28.7 °F /  -1.8 °C 21.8 °F /  -5.7 °C 30.12in /  1019.9hPa SW 2.0mph /  3.2km/h 5.0mph /  8km/h 75% 0.00in /  0mm 69.00 W/m2
11:44 28.7 °F /  -1.8 °C 21.8 °F /  -5.7 °C 30.12in /  1019.9hPa WSW 3.0mph /  4.8km/h 4.0mph /  6.4km/h 75% 0.00in /  0mm 65.00 W/m2
11:48 28.7 °F /  -1.8 °C 21.8 °F /  -5.7 °C 30.11in /  1019.5hPa SW 2.0mph /  3.2km/h 5.0mph /  8km/h 75% 0.00in /  0mm 67.00 W/m2
11:54 28.8 °F /  -1.8 °C 21.9 °F /  -5.6 °C 30.11in /  1019.5hPa SW 2.0mph /  3.2km/h 4.0mph /  6.4km/h 75% 0.00in /  0mm 70.00 W/m2
11:58 28.8 °F /  -1.8 °C 21.9 °F /  -5.6 °C 30.11in /  1019.5hPa SSW 2.0mph /  3.2km/h 6.0mph /  9.7km/h 75% 0.00in /  0mm 72.00 W/m2
12:04 28.9 °F /  -1.7 °C 22.0 °F /  -5.6 °C 30.10in /  1019.2hPa WSW 1.0mph /  1.6km/h 3.0mph /  4.8km/h 75% 0.00in /  0mm 79.00 W/m2
12:08 29.0 °F /  -1.7 °C 22.1 °F /  -5.5 °C 30.10in /  1019.2hPa WSW 2.0mph /  3.2km/h 6.0mph /  9.7km/h 75% 0.00in /  0mm 74.00 W/m2
12:14 29.0 °F /  -1.7 °C 22.1 °F /  -5.5 °C 30.10in /  1019.2hPa WSW 3.0mph /  4.8km/h 4.0mph /  6.4km/h 75% 0.00in /  0mm 76.00 W/m2
12:18 29.1 °F /  -1.6 °C 22.2 °F /  -5.4 °C 30.10in /  1019.2hPa SW 2.0mph /  3.2km/h 4.0mph /  6.4km/h 75% 0.00in /  0mm 84.00 W/m2
12:24 29.2 °F /  -1.6 °C 22.3 °F /  -5.4 °C 30.10in /  1019.2hPa WSW 1.0mph /  1.6km/h 2.0mph /  3.2km/h 75% 0.00in /  0mm 91.00 W/m2
12:28 29.3 °F /  -1.5 °C 22.4 °F /  -5.3 °C 30.10in /  1019.2hPa WSW 2.0mph /  3.2km/h 4.0mph /  6.4km/h 75% 0.00in /  0mm 104.00 W/m2
12:34 29.5 °F /  -1.4 °C 22.6 °F /  -5.2 °C 30.09in /  1018.8hPa WSW 3.0mph /  4.8km/h 4.0mph /  6.4km/h 75% 0.00in /  0mm 123.00 W/m2
12:38 29.6 °F /  -1.3 °C 22.6 °F /  -5.2 °C 30.08in /  1018.5hPa SSW 3.0mph /  4.8km/h 4.0mph /  6.4km/h 75% 0.00in /  0mm 134.00 W/m2
12:44 29.7 °F /  -1.3 °C 22.7 °F /  -5.2 °C 30.08in /  1018.5hPa WSW 3.0mph /  4.8km/h 6.0mph /  9.7km/h 75% 0.00in /  0mm 148.00 W/m2
12:48 29.9 °F /  -1.2 °C 22.9 °F /  -5.1 °C 30.08in /  1018.5hPa WSW 2.0mph /  3.2km/h 6.0mph /  9.7km/h 75% 0.00in /  0mm 144.00 W/m2
12:54 30.0 °F /  -1.1 °C 23.0 °F /  -5 °C 30.08in /  1018.5hPa SSW 2.0mph /  3.2km/h 4.0mph /  6.4km/h 75% 0.00in /  0mm 141.00 W/m2
12:58 30.0 °F /  -1.1 °C 23.0 °F /  -5 °C 30.08in /  1018.5hPa SW 3.0mph /  4.8km/h 4.0mph /  6.4km/h 75% 0.00in /  0mm 132.00 W/m2
13:04 30.2 °F /  -1 °C 23.2 °F /  -4.9 °C 30.08in /  1018.5hPa SW 2.0mph /  3.2km/h 4.0mph /  6.4km/h 75% 0.00in /  0mm 127.00 W/m2
13:08 30.2 °F /  -1 °C 23.2 °F /  -4.9 °C 30.08in /  1018.5hPa WSW 1.0mph /  1.6km/h 5.0mph /  8km/h 75% 0.00in /  0mm 120.00 W/m2
13:14 30.2 °F /  -1 °C 23.2 °F /  -4.9 °C 30.07in /  1018.2hPa WSW 2.0mph /  3.2km/h 7.0mph /  11.3km/h 75% 0.00in /  0mm 123.00 W/m2
13:18 30.3 °F /  -0.9 °C 23.3 °F /  -4.8 °C 30.07in /  1018.2hPa SW 3.0mph /  4.8km/h 7.0mph /  11.3km/h 75% 0.00in /  0mm 123.00 W/m2
13:24 30.3 °F /  -0.9 °C 23.3 °F /  -4.8 °C 30.07in /  1018.2hPa SW 3.0mph /  4.8km/h 3.0mph /  4.8km/h 75% 0.00in /  0mm 130.00 W/m2
13:28 30.5 °F /  -0.8 °C 23.5 °F /  -4.7 °C 30.07in /  1018.2hPa SW 2.0mph /  3.2km/h 3.0mph /  4.8km/h 75% 0.00in /  0mm 127.00 W/m2
13:34 30.5 °F /  -0.8 °C 23.5 °F /  -4.7 °C 30.07in /  1018.2hPa WSW 2.0mph /  3.2km/h 4.0mph /  6.4km/h 75% 0.00in /  0mm 116.00 W/m2
13:38 30.6 °F /  -0.8 °C 23.6 °F /  -4.7 °C 30.07in /  1018.2hPa SW 3.0mph /  4.8km/h 4.0mph /  6.4km/h 75% 0.00in /  0mm 111.00 W/m2
13:44 30.6 °F /  -0.8 °C 23.6 °F /  -4.7 °C 30.07in /  1018.2hPa WSW 4.0mph /  6.4km/h 4.0mph /  6.4km/h 75% 0.00in /  0mm 113.00 W/m2
13:48 30.7 °F /  -0.7 °C 24.0 °F /  -4.4 °C 30.07in /  1018.2hPa WSW 3.0mph /  4.8km/h 4.0mph /  6.4km/h 76% 0.00in /  0mm 109.00 W/m2
13:54 30.8 °F /  -0.7 °C 23.8 °F /  -4.6 °C 30.07in /  1018.2hPa WSW 2.0mph /  3.2km/h 3.0mph /  4.8km/h 75% 0.00in /  0mm 104.00 W/m2
13:58 30.9 °F /  -0.6 °C 23.9 °F /  -4.5 °C 30.07in /  1018.2hPa WSW 2.0mph /  3.2km/h 3.0mph /  4.8km/h 75% 0.00in /  0mm 93.00 W/m2
14:04 31.0 °F /  -0.6 °C 24.0 °F /  -4.4 °C 30.07in /  1018.2hPa WSW 1.0mph /  1.6km/h 2.0mph /  3.2km/h 75% 0.00in /  0mm 83.00 W/m2
14:08 31.0 °F /  -0.6 °C 24.0 °F /  -4.4 °C 30.07in /  1018.2hPa WSW 1.0mph /  1.6km/h 2.0mph /  3.2km/h 75% 0.00in /  0mm 83.00 W/m2
14:14 31.1 °F /  -0.5 °C 24.1 °F /  -4.4 °C 30.07in /  1018.2hPa WSW 1.0mph /  1.6km/h 2.0mph /  3.2km/h 75% 0.00in /  0mm 81.00 W/m2
14:18 31.2 °F /  -0.4 °C 24.5 °F /  -4.2 °C 30.07in /  1018.2hPa WSW 1.0mph /  1.6km/h 4.0mph /  6.4km/h 76% 0.00in /  0mm 76.00 W/m2
14:24 31.2 °F /  -0.4 °C 24.2 °F /  -4.3 °C 30.07in /  1018.2hPa West 2.0mph /  3.2km/h 4.0mph /  6.4km/h 75% 0.00in /  0mm 70.00 W/m2
14:28 31.1 °F /  -0.5 °C 24.1 °F /  -4.4 °C 30.07in /  1018.2hPa SW 3.0mph /  4.8km/h 5.0mph /  8km/h 75% 0.00in /  0mm 62.00 W/m2
14:34 31.2 °F /  -0.4 °C 24.2 °F /  -4.3 °C 30.07in /  1018.2hPa WSW 2.0mph /  3.2km/h 6.0mph /  9.7km/h 75% 0.00in /  0mm 56.00 W/m2
14:38 31.1 °F /  -0.5 °C 24.1 °F /  -4.4 °C 30.07in /  1018.2hPa WSW 2.0mph /  3.2km/h 6.0mph /  9.7km/h 75% 0.00in /  0mm 47.00 W/m2
14:44 31.2 °F /  -0.4 °C 24.5 °F /  -4.2 °C 30.07in /  1018.2hPa SSW 2.0mph /  3.2km/h 4.0mph /  6.4km/h 76% 0.00in /  0mm 47.00 W/m2
14:48 31.1 °F /  -0.5 °C 24.4 °F /  -4.2 °C 30.07in /  1018.2hPa WSW 2.0mph /  3.2km/h 4.0mph /  6.4km/h 76% 0.00in /  0mm 40.00 W/m2
14:54 30.9 °F /  -0.6 °C 24.2 °F /  -4.3 °C 30.07in /  1018.2hPa South 3.0mph /  4.8km/h 4.0mph /  6.4km/h 76% 0.00in /  0mm 37.00 W/m2
14:58 30.9 °F /  -0.6 °C 24.2 °F /  -4.3 °C 30.07in /  1018.2hPa WSW 3.0mph /  4.8km/h 6.0mph /  9.7km/h 76% 0.00in /  0mm 40.00 W/m2
15:04 30.8 °F /  -0.7 °C 24.4 °F /  -4.2 °C 30.07in /  1018.2hPa WSW 2.0mph /  3.2km/h 5.0mph /  8km/h 77% 0.00in /  0mm 46.00 W/m2
15:08 30.8 °F /  -0.7 °C 24.4 °F /  -4.2 °C 30.07in /  1018.2hPa SW 4.0mph /  6.4km/h 5.0mph /  8km/h 77% 0.00in /  0mm 47.00 W/m2
15:14 30.7 °F /  -0.7 °C 24.3 °F /  -4.3 °C 30.07in /  1018.2hPa SW 4.0mph /  6.4km/h 4.0mph /  6.4km/h 77% 0.00in /  0mm 42.00 W/m2
15:18 30.7 °F /  -0.7 °C 24.3 °F /  -4.3 °C 30.07in /  1018.2hPa SW 3.0mph /  4.8km/h 4.0mph /  6.4km/h 77% 0.00in /  0mm 44.00 W/m2
15:24 30.8 °F /  -0.7 °C 24.4 °F /  -4.2 °C 30.07in /  1018.2hPa WSW 2.0mph /  3.2km/h 3.0mph /  4.8km/h 77% 0.00in /  0mm 46.00 W/m2
15:28 30.8 °F /  -0.7 °C 24.4 °F /  -4.2 °C 30.07in /  1018.2hPa WSW 1.0mph /  1.6km/h 3.0mph /  4.8km/h 77% 0.00in /  0mm 47.00 W/m2
15:34 30.8 °F /  -0.7 °C 24.4 °F /  -4.2 °C 30.07in /  1018.2hPa WSW 1.0mph /  1.6km/h 2.0mph /  3.2km/h 77% 0.00in /  0mm 47.00 W/m2
15:38 30.7 °F /  -0.7 °C 24.3 °F /  -4.3 °C 30.07in /  1018.2hPa WSW 1.0mph /  1.6km/h 4.0mph /  6.4km/h 77% 0.00in /  0mm 46.00 W/m2
15:44 30.7 °F /  -0.7 °C 24.3 °F /  -4.3 °C 30.07in /  1018.2hPa SW 2.0mph /  3.2km/h 3.0mph /  4.8km/h 77% 0.00in /  0mm 49.00 W/m2
15:48 30.7 °F /  -0.7 °C 24.3 °F /  -4.3 °C 30.07in /  1018.2hPa WSW 2.0mph /  3.2km/h 5.0mph /  8km/h 77% 0.00in /  0mm 49.00 W/m2
15:54 30.7 °F /  -0.7 °C 24.0 °F /  -4.4 °C 30.07in /  1018.2hPa West 2.0mph /  3.2km/h 5.0mph /  8km/h 76% 0.00in /  0mm 44.00 W/m2
15:58 30.6 °F /  -0.8 °C 23.9 °F /  -4.5 °C 30.07in /  1018.2hPa WSW 2.0mph /  3.2km/h 5.0mph /  8km/h 76% 0.00in /  0mm 37.00 W/m2
16:04 30.6 °F /  -0.8 °C 23.9 °F /  -4.5 °C 30.06in /  1017.8hPa SW 2.0mph /  3.2km/h 3.0mph /  4.8km/h 76% 0.00in /  0mm 26.00 W/m2
16:08 30.6 °F /  -0.8 °C 23.9 °F /  -4.5 °C 30.06in /  1017.8hPa SW 2.0mph /  3.2km/h 5.0mph /  8km/h 76% 0.00in /  0mm 16.00 W/m2
16:14 30.6 °F /  -0.8 °C 23.9 °F /  -4.5 °C 30.06in /  1017.8hPa WSW 3.0mph /  4.8km/h 5.0mph /  8km/h 76% 0.00in /  0mm 16.00 W/m2
16:18 30.6 °F /  -0.8 °C 23.9 °F /  -4.5 °C 30.06in /  1017.8hPa West 3.0mph /  4.8km/h 5.0mph /  8km/h 76% 0.00in /  0mm 14.00 W/m2
16:24 30.5 °F /  -0.8 °C 23.8 °F /  -4.6 °C 30.06in /  1017.8hPa SW 2.0mph /  3.2km/h 2.0mph /  3.2km/h 76% 0.00in /  0mm 14.00 W/m2
16:28 30.5 °F /  -0.8 °C 23.8 °F /  -4.6 °C 30.07in /  1018.2hPa SW 1.0mph /  1.6km/h 6.0mph /  9.7km/h 76% 0.00in /  0mm 11.00 W/m2
16:34 30.4 °F /  -0.9 °C 23.7 °F /  -4.6 °C 30.07in /  1018.2hPa SW 2.0mph /  3.2km/h 2.0mph /  3.2km/h 76% 0.00in /  0mm 9.00 W/m2
16:38 30.4 °F /  -0.9 °C 23.7 °F /  -4.6 °C 30.07in /  1018.2hPa SW 2.0mph /  3.2km/h 6.0mph /  9.7km/h 76% 0.00in /  0mm 11.00 W/m2
16:44 30.4 °F /  -0.9 °C 23.7 °F /  -4.6 °C 30.06in /  1017.8hPa SSW 2.0mph /  3.2km/h 4.0mph /  6.4km/h 76% 0.00in /  0mm 9.00 W/m2
16:48 30.4 °F /  -0.9 °C 23.7 °F /  -4.6 °C 30.07in /  1018.2hPa SW 2.0mph /  3.2km/h 4.0mph /  6.4km/h 76% 0.00in /  0mm 5.00 W/m2
16:54 30.4 °F /  -0.9 °C 23.7 °F /  -4.6 °C 30.06in /  1017.8hPa SW 1.0mph /  1.6km/h 5.0mph /  8km/h 76% 0.00in /  0mm 0.00 W/m2
16:58 30.4 °F /  -0.9 °C 23.7 °F /  -4.6 °C 30.06in /  1017.8hPa SW 2.0mph /  3.2km/h 5.0mph /  8km/h 76% 0.00in /  0mm 0.00 W/m2
17:04 30.4 °F /  -0.9 °C 24.1 °F /  -4.4 °C 30.06in /  1017.8hPa WSW 2.0mph /  3.2km/h 3.0mph /  4.8km/h 77% 0.00in /  0mm 0.00 W/m2
17:08 30.3 °F /  -0.9 °C 24.0 °F /  -4.4 °C 30.06in /  1017.8hPa WSW 2.0mph /  3.2km/h 3.0mph /  4.8km/h 77% 0.00in /  0mm 0.00 W/m2
17:14 30.2 °F /  -1 °C 23.9 °F /  -4.5 °C 30.06in /  1017.8hPa West 2.0mph /  3.2km/h 5.0mph /  8km/h 77% 0.00in /  0mm 0.00 W/m2
17:18 30.2 °F /  -1 °C 24.2 °F /  -4.3 °C 30.06in /  1017.8hPa WSW 2.0mph /  3.2km/h 5.0mph /  8km/h 78% 0.00in /  0mm 0.00 W/m2
17:24 30.1 °F /  -1.1 °C 24.1 °F /  -4.4 °C 30.06in /  1017.8hPa SW 2.0mph /  3.2km/h 4.0mph /  6.4km/h 78% 0.00in /  0mm 0.00 W/m2
17:28 30.1 °F /  -1.1 °C 24.1 °F /  -4.4 °C 30.06in /  1017.8hPa WSW 2.0mph /  3.2km/h 4.0mph /  6.4km/h 78% 0.00in /  0mm 0.00 W/m2
17:34 30.0 °F /  -1.1 °C 24.3 °F /  -4.3 °C 30.06in /  1017.8hPa SW 3.0mph /  4.8km/h 6.0mph /  9.7km/h 79% 0.00in /  0mm 0.00 W/m2
17:38 29.9 °F /  -1.2 °C 24.2 °F /  -4.3 °C 30.06in /  1017.8hPa West 3.0mph /  4.8km/h 6.0mph /  9.7km/h 79% 0.00in /  0mm 0.00 W/m2
17:44 29.9 °F /  -1.2 °C 24.2 °F /  -4.3 °C 30.06in /  1017.8hPa WSW 2.0mph /  3.2km/h 4.0mph /  6.4km/h 79% 0.00in /  0mm 0.00 W/m2
17:48 29.8 °F /  -1.2 °C 24.4 °F /  -4.2 °C 30.06in /  1017.8hPa WSW 2.0mph /  3.2km/h 4.0mph /  6.4km/h 80% 0.00in /  0mm 0.00 W/m2
17:54 29.7 °F /  -1.3 °C 24.3 °F /  -4.3 °C 30.06in /  1017.8hPa West 2.0mph /  3.2km/h 2.0mph /  3.2km/h 80% 0.00in /  0mm 0.00 W/m2
17:58 29.7 °F /  -1.3 °C 24.3 °F /  -4.3 °C 30.06in /  1017.8hPa SSW 2.0mph /  3.2km/h 5.0mph /  8km/h 80% 0.00in /  0mm 0.00 W/m2
18:04 29.6 °F /  -1.3 °C 24.2 °F /  -4.3 °C 30.06in /  1017.8hPa WSW 2.0mph /  3.2km/h 3.0mph /  4.8km/h 80% 0.00in /  0mm 0.00 W/m2
18:08 29.6 °F /  -1.3 °C 24.5 °F /  -4.2 °C 30.06in /  1017.8hPa WSW 2.0mph /  3.2km/h 3.0mph /  4.8km/h 81% 0.00in /  0mm 0.00 W/m2
18:14 29.5 °F /  -1.4 °C 24.4 °F /  -4.2 °C 30.06in /  1017.8hPa WSW 1.0mph /  1.6km/h 3.0mph /  4.8km/h 81% 0.00in /  0mm 0.00 W/m2
18:18 29.5 °F /  -1.4 °C 24.7 °F /  -4.1 °C 30.05in /  1017.5hPa WSW 1.0mph /  1.6km/h 3.0mph /  4.8km/h 82% 0.00in /  0mm 0.00 W/m2
18:24 29.3 °F /  -1.5 °C 24.5 °F /  -4.2 °C 30.05in /  1017.5hPa SW 2.0mph /  3.2km/h 4.0mph /  6.4km/h 82% 0.00in /  0mm 0.00 W/m2
18:28 29.4 °F /  -1.4 °C 24.9 °F /  -3.9 °C 30.06in /  1017.8hPa SSW 2.0mph /  3.2km/h 4.0mph /  6.4km/h 83% 0.00in /  0mm 0.00 W/m2
18:34 29.3 °F /  -1.5 °C 24.8 °F /  -4 °C 30.06in /  1017.8hPa SW 2.0mph /  3.2km/h 2.0mph /  3.2km/h 83% 0.00in /  0mm 0.00 W/m2
18:38 29.2 °F /  -1.6 °C 24.7 °F /  -4.1 °C 30.06in /  1017.8hPa WSW 1.0mph /  1.6km/h 3.0mph /  4.8km/h 83% 0.00in /  0mm 0.00 W/m2
18:44 29.3 °F /  -1.5 °C 25.1 °F /  -3.8 °C 30.06in /  1017.8hPa SSW 1.0mph /  1.6km/h 3.0mph /  4.8km/h 84% 0.00in /  0mm 0.00 W/m2
Country Meadow, Clay, NY, USA
Compliments of Weather Underground - 2 mb